sensor_id;sensor_type;location;lat;lon;timestamp;P1;durP1;ratioP1;P2;durP2;ratioP2
84652;SDS011;74883;48.882;2.092;2024-01-06T00:01:17;12.40;;;7.00;;
84652;SDS011;74883;48.882;2.092;2024-01-06T00:03:42;19.33;;;8.25;;
84652;SDS011;74883;48.882;2.092;2024-01-06T00:06:10;13.85;;;6.53;;
84652;SDS011;74883;48.882;2.092;2024-01-06T00:08:37;14.40;;;7.35;;
84652;SDS011;74883;48.882;2.092;2024-01-06T00:11:02;13.67;;;7.07;;
84652;SDS011;74883;48.882;2.092;2024-01-06T00:13:28;12.25;;;6.20;;
84652;SDS011;74883;48.882;2.092;2024-01-06T00:15:54;16.55;;;6.35;;
84652;SDS011;74883;48.882;2.092;2024-01-06T00:18:20;15.95;;;7.50;;
84652;SDS011;74883;48.882;2.092;2024-01-06T00:20:45;18.80;;;8.10;;
84652;SDS011;74883;48.882;2.092;2024-01-06T00:23:10;16.13;;;7.53;;
84652;SDS011;74883;48.882;2.092;2024-01-06T00:25:36;14.70;;;7.30;;
84652;SDS011;74883;48.882;2.092;2024-01-06T00:28:01;13.63;;;6.57;;
84652;SDS011;74883;48.882;2.092;2024-01-06T00:30:26;15.83;;;6.77;;
84652;SDS011;74883;48.882;2.092;2024-01-06T00:32:52;14.10;;;6.33;;
84652;SDS011;74883;48.882;2.092;2024-01-06T00:35:17;14.32;;;6.68;;
84652;SDS011;74883;48.882;2.092;2024-01-06T00:37:42;12.43;;;6.27;;
84652;SDS011;74883;48.882;2.092;2024-01-06T00:40:08;17.83;;;6.47;;
84652;SDS011;74883;48.882;2.092;2024-01-06T00:42:33;15.40;;;7.28;;
84652;SDS011;74883;48.882;2.092;2024-01-06T00:44:59;14.97;;;6.87;;
84652;SDS011;74883;48.882;2.092;2024-01-06T00:47:24;13.53;;;6.90;;
84652;SDS011;74883;48.882;2.092;2024-01-06T00:49:50;12.82;;;5.88;;
84652;SDS011;74883;48.882;2.092;2024-01-06T00:52:15;11.85;;;5.80;;
84652;SDS011;74883;48.882;2.092;2024-01-06T00:54:41;14.63;;;6.37;;
84652;SDS011;74883;48.882;2.092;2024-01-06T00:57:06;12.47;;;6.20;;
84652;SDS011;74883;48.882;2.092;2024-01-06T00:59:32;13.38;;;6.22;;
84652;SDS011;74883;48.882;2.092;2024-01-06T01:01:57;11.88;;;5.20;;
84652;SDS011;74883;48.882;2.092;2024-01-06T01:04:23;12.27;;;5.73;;
84652;SDS011;74883;48.882;2.092;2024-01-06T01:06:48;13.63;;;6.47;;
84652;SDS011;74883;48.882;2.092;2024-01-06T01:09:13;13.80;;;4.93;;
84652;SDS011;74883;48.882;2.092;2024-01-06T01:11:39;12.13;;;6.43;;
84652;SDS011;74883;48.882;2.092;2024-01-06T01:14:05;10.98;;;5.93;;
84652;SDS011;74883;48.882;2.092;2024-01-06T01:16:30;11.27;;;5.97;;
84652;SDS011;74883;48.882;2.092;2024-01-06T01:18:57;11.00;;;5.28;;
84652;SDS011;74883;48.882;2.092;2024-01-06T01:21:22;11.48;;;5.45;;
84652;SDS011;74883;48.882;2.092;2024-01-06T01:23:48;11.25;;;5.72;;
84652;SDS011;74883;48.882;2.092;2024-01-06T01:26:13;11.93;;;6.50;;
84652;SDS011;74883;48.882;2.092;2024-01-06T01:28:39;12.40;;;5.60;;
84652;SDS011;74883;48.882;2.092;2024-01-06T01:31:04;12.83;;;6.10;;
84652;SDS011;74883;48.882;2.092;2024-01-06T01:33:29;12.13;;;5.40;;
84652;SDS011;74883;48.882;2.092;2024-01-06T01:35:55;13.53;;;6.47;;
84652;SDS011;74883;48.882;2.092;2024-01-06T01:38:20;13.37;;;6.07;;
84652;SDS011;74883;48.882;2.092;2024-01-06T01:40:45;14.17;;;6.03;;
84652;SDS011;74883;48.882;2.092;2024-01-06T01:43:17;14.33;;;6.20;;
84652;SDS011;74883;48.882;2.092;2024-01-06T01:45:55;13.95;;;7.03;;
84652;SDS011;74883;48.882;2.092;2024-01-06T01:48:21;15.68;;;6.97;;
84652;SDS011;74883;48.882;2.092;2024-01-06T01:50:48;14.32;;;5.95;;
84652;SDS011;74883;48.882;2.092;2024-01-06T01:53:14;14.32;;;6.50;;
84652;SDS011;74883;48.882;2.092;2024-01-06T01:55:41;12.63;;;6.20;;
84652;SDS011;74883;48.882;2.092;2024-01-06T01:58:07;12.38;;;6.47;;
84652;SDS011;74883;48.882;2.092;2024-01-06T02:00:33;14.10;;;7.32;;
84652;SDS011;74883;48.882;2.092;2024-01-06T02:03:01;16.33;;;7.50;;
84652;SDS011;74883;48.882;2.092;2024-01-06T02:05:29;14.90;;;6.93;;
84652;SDS011;74883;48.882;2.092;2024-01-06T02:07:58;14.98;;;7.00;;
84652;SDS011;74883;48.882;2.092;2024-01-06T02:10:23;17.20;;;8.18;;
84652;SDS011;74883;48.882;2.092;2024-01-06T02:12:48;15.90;;;7.60;;
84652;SDS011;74883;48.882;2.092;2024-01-06T02:15:14;15.38;;;7.53;;
84652;SDS011;74883;48.882;2.092;2024-01-06T02:17:39;17.23;;;8.20;;
84652;SDS011;74883;48.882;2.092;2024-01-06T02:20:05;18.05;;;7.93;;
84652;SDS011;74883;48.882;2.092;2024-01-06T02:22:32;16.67;;;7.18;;
84652;SDS011;74883;48.882;2.092;2024-01-06T02:25:00;16.08;;;8.13;;
84652;SDS011;74883;48.882;2.092;2024-01-06T02:27:26;20.48;;;8.57;;
84652;SDS011;74883;48.882;2.092;2024-01-06T02:29:51;15.70;;;7.75;;
84652;SDS011;74883;48.882;2.092;2024-01-06T02:32:16;14.50;;;7.63;;
84652;SDS011;74883;48.882;2.092;2024-01-06T02:34:42;17.13;;;8.50;;
84652;SDS011;74883;48.882;2.092;2024-01-06T02:37:07;17.17;;;8.00;;
84652;SDS011;74883;48.882;2.092;2024-01-06T02:39:32;17.13;;;8.45;;
84652;SDS011;74883;48.882;2.092;2024-01-06T02:41:58;17.35;;;8.25;;
84652;SDS011;74883;48.882;2.092;2024-01-06T02:44:23;17.70;;;8.00;;
84652;SDS011;74883;48.882;2.092;2024-01-06T02:46:48;17.87;;;8.00;;
84652;SDS011;74883;48.882;2.092;2024-01-06T02:49:14;18.20;;;7.85;;
84652;SDS011;74883;48.882;2.092;2024-01-06T02:51:39;20.33;;;9.17;;
84652;SDS011;74883;48.882;2.092;2024-01-06T02:54:04;16.20;;;8.77;;
84652;SDS011;74883;48.882;2.092;2024-01-06T02:56:30;18.60;;;9.77;;
84652;SDS011;74883;48.882;2.092;2024-01-06T02:58:55;22.20;;;9.27;;
84652;SDS011;74883;48.882;2.092;2024-01-06T03:01:20;15.90;;;7.53;;
84652;SDS011;74883;48.882;2.092;2024-01-06T03:03:46;21.52;;;8.50;;
84652;SDS011;74883;48.882;2.092;2024-01-06T03:06:12;17.70;;;8.40;;
84652;SDS011;74883;48.882;2.092;2024-01-06T03:08:37;15.77;;;7.88;;
84652;SDS011;74883;48.882;2.092;2024-01-06T03:11:02;15.50;;;7.93;;
84652;SDS011;74883;48.882;2.092;2024-01-06T03:13:29;16.00;;;8.43;;
84652;SDS011;74883;48.882;2.092;2024-01-06T03:15:57;18.17;;;9.38;;
84652;SDS011;74883;48.882;2.092;2024-01-06T03:18:28;13.43;;;6.90;;
84652;SDS011;74883;48.882;2.092;2024-01-06T03:20:53;14.87;;;7.50;;
84652;SDS011;74883;48.882;2.092;2024-01-06T03:23:19;15.15;;;8.13;;
84652;SDS011;74883;48.882;2.092;2024-01-06T03:25:44;13.38;;;7.25;;
84652;SDS011;74883;48.882;2.092;2024-01-06T03:28:09;12.00;;;6.63;;
84652;SDS011;74883;48.882;2.092;2024-01-06T03:30:35;17.93;;;8.20;;
84652;SDS011;74883;48.882;2.092;2024-01-06T03:33:01;12.88;;;6.47;;
84652;SDS011;74883;48.882;2.092;2024-01-06T03:35:26;14.83;;;7.63;;
84652;SDS011;74883;48.882;2.092;2024-01-06T03:37:51;22.80;;;8.10;;
84652;SDS011;74883;48.882;2.092;2024-01-06T03:40:16;19.58;;;8.45;;
84652;SDS011;74883;48.882;2.092;2024-01-06T03:42:42;16.10;;;8.17;;
84652;SDS011;74883;48.882;2.092;2024-01-06T03:45:07;14.50;;;6.67;;
84652;SDS011;74883;48.882;2.092;2024-01-06T03:47:33;17.10;;;7.25;;
84652;SDS011;74883;48.882;2.092;2024-01-06T03:49:58;13.50;;;7.40;;
84652;SDS011;74883;48.882;2.092;2024-01-06T03:52:23;14.33;;;7.13;;
84652;SDS011;74883;48.882;2.092;2024-01-06T03:54:49;13.27;;;6.90;;
84652;SDS011;74883;48.882;2.092;2024-01-06T03:57:14;13.77;;;6.87;;
84652;SDS011;74883;48.882;2.092;2024-01-06T03:59:39;13.27;;;7.70;;
84652;SDS011;74883;48.882;2.092;2024-01-06T04:02:05;13.13;;;6.83;;
84652;SDS011;74883;48.882;2.092;2024-01-06T04:04:30;15.85;;;6.80;;
84652;SDS011;74883;48.882;2.092;2024-01-06T04:06:55;14.95;;;7.72;;
84652;SDS011;74883;48.882;2.092;2024-01-06T04:09:21;17.53;;;7.73;;
84652;SDS011;74883;48.882;2.092;2024-01-06T04:11:46;14.57;;;6.90;;
84652;SDS011;74883;48.882;2.092;2024-01-06T04:14:11;14.40;;;6.70;;
84652;SDS011;74883;48.882;2.092;2024-01-06T04:16:37;14.18;;;7.10;;
84652;SDS011;74883;48.882;2.092;2024-01-06T04:19:02;14.57;;;8.10;;
84652;SDS011;74883;48.882;2.092;2024-01-06T04:21:27;14.43;;;7.20;;
84652;SDS011;74883;48.882;2.092;2024-01-06T04:23:53;17.27;;;7.47;;
84652;SDS011;74883;48.882;2.092;2024-01-06T04:26:19;13.95;;;6.45;;
84652;SDS011;74883;48.882;2.092;2024-01-06T04:28:44;15.00;;;6.57;;
84652;SDS011;74883;48.882;2.092;2024-01-06T04:31:10;12.25;;;6.07;;
84652;SDS011;74883;48.882;2.092;2024-01-06T04:33:35;14.70;;;6.70;;
84652;SDS011;74883;48.882;2.092;2024-01-06T04:36:01;17.40;;;7.00;;
84652;SDS011;74883;48.882;2.092;2024-01-06T04:38:27;15.75;;;6.95;;
84652;SDS011;74883;48.882;2.092;2024-01-06T04:40:53;12.60;;;6.95;;
84652;SDS011;74883;48.882;2.092;2024-01-06T04:43:18;14.38;;;7.03;;
84652;SDS011;74883;48.882;2.092;2024-01-06T04:45:43;15.00;;;6.40;;
84652;SDS011;74883;48.882;2.092;2024-01-06T04:48:09;18.03;;;7.60;;
84652;SDS011;74883;48.882;2.092;2024-01-06T04:50:34;14.67;;;6.83;;
84652;SDS011;74883;48.882;2.092;2024-01-06T04:52:59;13.60;;;7.03;;
84652;SDS011;74883;48.882;2.092;2024-01-06T04:55:25;14.83;;;7.27;;
84652;SDS011;74883;48.882;2.092;2024-01-06T04:57:50;20.83;;;7.60;;
84652;SDS011;74883;48.882;2.092;2024-01-06T05:00:15;13.60;;;6.80;;
84652;SDS011;74883;48.882;2.092;2024-01-06T05:02:41;12.75;;;7.78;;
84652;SDS011;74883;48.882;2.092;2024-01-06T05:05:06;15.43;;;7.90;;
84652;SDS011;74883;48.882;2.092;2024-01-06T05:07:32;14.18;;;7.15;;
84652;SDS011;74883;48.882;2.092;2024-01-06T05:09:57;17.00;;;9.43;;
84652;SDS011;74883;48.882;2.092;2024-01-06T05:12:22;16.07;;;8.83;;
84652;SDS011;74883;48.882;2.092;2024-01-06T05:14:48;14.17;;;8.27;;
84652;SDS011;74883;48.882;2.092;2024-01-06T05:17:13;13.47;;;7.73;;
84652;SDS011;74883;48.882;2.092;2024-01-06T05:19:38;16.00;;;6.80;;
84652;SDS011;74883;48.882;2.092;2024-01-06T05:22:04;15.80;;;7.80;;
84652;SDS011;74883;48.882;2.092;2024-01-06T05:24:29;14.10;;;6.93;;
84652;SDS011;74883;48.882;2.092;2024-01-06T05:26:54;13.20;;;7.67;;
84652;SDS011;74883;48.882;2.092;2024-01-06T05:29:20;13.82;;;7.35;;
84652;SDS011;74883;48.882;2.092;2024-01-06T05:31:45;17.00;;;7.20;;
84652;SDS011;74883;48.882;2.092;2024-01-06T05:34:12;15.02;;;8.30;;
84652;SDS011;74883;48.882;2.092;2024-01-06T05:36:38;16.07;;;7.03;;
84652;SDS011;74883;48.882;2.092;2024-01-06T05:39:03;16.23;;;8.10;;
84652;SDS011;74883;48.882;2.092;2024-01-06T05:41:29;15.95;;;7.00;;
84652;SDS011;74883;48.882;2.092;2024-01-06T05:43:54;16.42;;;7.25;;
84652;SDS011;74883;48.882;2.092;2024-01-06T05:46:23;15.10;;;6.77;;
84652;SDS011;74883;48.882;2.092;2024-01-06T05:48:49;16.73;;;7.40;;
84652;SDS011;74883;48.882;2.092;2024-01-06T05:51:15;13.50;;;7.38;;
84652;SDS011;74883;48.882;2.092;2024-01-06T05:53:40;19.90;;;8.03;;
84652;SDS011;74883;48.882;2.092;2024-01-06T05:56:07;13.18;;;7.00;;
84652;SDS011;74883;48.882;2.092;2024-01-06T05:58:34;15.60;;;6.90;;
84652;SDS011;74883;48.882;2.092;2024-01-06T06:00:59;15.18;;;6.50;;
84652;SDS011;74883;48.882;2.092;2024-01-06T06:03:25;10.80;;;6.35;;
84652;SDS011;74883;48.882;2.092;2024-01-06T06:05:50;11.87;;;6.63;;
84652;SDS011;74883;48.882;2.092;2024-01-06T06:08:15;11.73;;;6.05;;
84652;SDS011;74883;48.882;2.092;2024-01-06T06:10:41;10.47;;;5.73;;
84652;SDS011;74883;48.882;2.092;2024-01-06T06:13:09;12.65;;;6.10;;
84652;SDS011;74883;48.882;2.092;2024-01-06T06:15:36;12.75;;;6.60;;
84652;SDS011;74883;48.882;2.092;2024-01-06T06:18:01;12.73;;;5.65;;
84652;SDS011;74883;48.882;2.092;2024-01-06T06:20:26;17.10;;;7.03;;
84652;SDS011;74883;48.882;2.092;2024-01-06T06:22:52;12.43;;;6.13;;
84652;SDS011;74883;48.882;2.092;2024-01-06T06:25:17;14.23;;;5.83;;
84652;SDS011;74883;48.882;2.092;2024-01-06T06:27:42;12.97;;;6.20;;
84652;SDS011;74883;48.882;2.092;2024-01-06T06:30:08;13.77;;;7.00;;
84652;SDS011;74883;48.882;2.092;2024-01-06T06:32:33;16.73;;;6.78;;
84652;SDS011;74883;48.882;2.092;2024-01-06T06:35:01;12.27;;;6.87;;
84652;SDS011;74883;48.882;2.092;2024-01-06T06:39:51;11.77;;;5.73;;
84652;SDS011;74883;48.882;2.092;2024-01-06T06:42:17;14.85;;;5.70;;
84652;SDS011;74883;48.882;2.092;2024-01-06T06:44:42;15.53;;;6.20;;
84652;SDS011;74883;48.882;2.092;2024-01-06T06:47:07;13.17;;;5.93;;
84652;SDS011;74883;48.882;2.092;2024-01-06T06:49:33;13.30;;;6.60;;
84652;SDS011;74883;48.882;2.092;2024-01-06T06:51:58;13.00;;;6.13;;
84652;SDS011;74883;48.882;2.092;2024-01-06T06:54:24;15.83;;;6.77;;
84652;SDS011;74883;48.882;2.092;2024-01-06T06:56:49;13.33;;;6.33;;
84652;SDS011;74883;48.882;2.092;2024-01-06T06:59:14;13.73;;;6.25;;
84652;SDS011;74883;48.882;2.092;2024-01-06T07:01:40;11.88;;;6.75;;
84652;SDS011;74883;48.882;2.092;2024-01-06T07:04:05;13.07;;;6.80;;
84652;SDS011;74883;48.882;2.092;2024-01-06T07:06:30;14.38;;;6.45;;
84652;SDS011;74883;48.882;2.092;2024-01-06T07:08:56;12.88;;;6.53;;
84652;SDS011;74883;48.882;2.092;2024-01-06T07:11:22;12.45;;;6.57;;
84652;SDS011;74883;48.882;2.092;2024-01-06T07:13:47;12.32;;;6.05;;
84652;SDS011;74883;48.882;2.092;2024-01-06T07:16:13;13.97;;;6.27;;
84652;SDS011;74883;48.882;2.092;2024-01-06T07:18:38;15.02;;;5.72;;
84652;SDS011;74883;48.882;2.092;2024-01-06T07:21:06;13.00;;;5.70;;
84652;SDS011;74883;48.882;2.092;2024-01-06T07:23:32;12.23;;;5.70;;
84652;SDS011;74883;48.882;2.092;2024-01-06T07:25:58;13.18;;;5.55;;
84652;SDS011;74883;48.882;2.092;2024-01-06T07:28:23;14.00;;;5.97;;
84652;SDS011;74883;48.882;2.092;2024-01-06T07:30:49;15.63;;;5.40;;
84652;SDS011;74883;48.882;2.092;2024-01-06T07:33:14;11.68;;;5.13;;
84652;SDS011;74883;48.882;2.092;2024-01-06T07:35:39;15.25;;;5.82;;
84652;SDS011;74883;48.882;2.092;2024-01-06T07:38:08;13.38;;;4.90;;
84652;SDS011;74883;48.882;2.092;2024-01-06T07:40:35;9.88;;;4.45;;
84652;SDS011;74883;48.882;2.092;2024-01-06T07:43:01;9.18;;;4.45;;
84652;SDS011;74883;48.882;2.092;2024-01-06T07:45:27;11.80;;;4.45;;
84652;SDS011;74883;48.882;2.092;2024-01-06T07:47:52;8.48;;;3.75;;
84652;SDS011;74883;48.882;2.092;2024-01-06T07:50:18;12.13;;;4.10;;
84652;SDS011;74883;48.882;2.092;2024-01-06T07:52:43;8.57;;;4.35;;
84652;SDS011;74883;48.882;2.092;2024-01-06T07:55:08;8.33;;;3.43;;
84652;SDS011;74883;48.882;2.092;2024-01-06T07:57:34;8.27;;;4.25;;
84652;SDS011;74883;48.882;2.092;2024-01-06T07:59:59;7.43;;;3.50;;
84652;SDS011;74883;48.882;2.092;2024-01-06T08:02:25;6.63;;;3.03;;
84652;SDS011;74883;48.882;2.092;2024-01-06T08:04:51;9.20;;;4.00;;
84652;SDS011;74883;48.882;2.092;2024-01-06T08:07:16;8.13;;;3.80;;
84652;SDS011;74883;48.882;2.092;2024-01-06T08:09:41;6.63;;;3.17;;
84652;SDS011;74883;48.882;2.092;2024-01-06T08:12:07;7.53;;;3.08;;
84652;SDS011;74883;48.882;2.092;2024-01-06T08:14:33;8.15;;;3.75;;
84652;SDS011;74883;48.882;2.092;2024-01-06T08:16:58;9.10;;;4.03;;
84652;SDS011;74883;48.882;2.092;2024-01-06T08:19:24;9.90;;;4.10;;
84652;SDS011;74883;48.882;2.092;2024-01-06T08:21:49;9.15;;;4.10;;
84652;SDS011;74883;48.882;2.092;2024-01-06T08:24:14;9.07;;;3.40;;
84652;SDS011;74883;48.882;2.092;2024-01-06T08:26:40;6.50;;;2.80;;
84652;SDS011;74883;48.882;2.092;2024-01-06T08:29:05;7.93;;;3.58;;
84652;SDS011;74883;48.882;2.092;2024-01-06T08:31:30;8.00;;;3.13;;
84652;SDS011;74883;48.882;2.092;2024-01-06T08:33:56;10.47;;;3.50;;
84652;SDS011;74883;48.882;2.092;2024-01-06T08:36:21;8.77;;;3.47;;
84652;SDS011;74883;48.882;2.092;2024-01-06T08:38:46;9.45;;;4.32;;
84652;SDS011;74883;48.882;2.092;2024-01-06T08:41:12;8.07;;;4.15;;
84652;SDS011;74883;48.882;2.092;2024-01-06T08:43:37;12.40;;;4.90;;
84652;SDS011;74883;48.882;2.092;2024-01-06T08:46:02;7.53;;;3.73;;
84652;SDS011;74883;48.882;2.092;2024-01-06T08:48:28;14.88;;;4.18;;
84652;SDS011;74883;48.882;2.092;2024-01-06T08:50:53;7.77;;;3.57;;
84652;SDS011;74883;48.882;2.092;2024-01-06T08:53:19;8.27;;;4.00;;
84652;SDS011;74883;48.882;2.092;2024-01-06T08:55:44;11.50;;;5.23;;
84652;SDS011;74883;48.882;2.092;2024-01-06T08:58:10;6.32;;;3.13;;
84652;SDS011;74883;48.882;2.092;2024-01-06T09:00:35;6.77;;;2.90;;
84652;SDS011;74883;48.882;2.092;2024-01-06T09:03:00;5.63;;;2.43;;
84652;SDS011;74883;48.882;2.092;2024-01-06T09:05:26;9.97;;;2.80;;
84652;SDS011;74883;48.882;2.092;2024-01-06T09:07:51;6.43;;;3.43;;
84652;SDS011;74883;48.882;2.092;2024-01-06T09:10:22;6.97;;;3.27;;
84652;SDS011;74883;48.882;2.092;2024-01-06T09:12:48;6.90;;;2.90;;
84652;SDS011;74883;48.882;2.092;2024-01-06T09:15:13;5.73;;;2.97;;
84652;SDS011;74883;48.882;2.092;2024-01-06T09:17:38;7.00;;;3.30;;
84652;SDS011;74883;48.882;2.092;2024-01-06T09:20:04;6.43;;;3.97;;
84652;SDS011;74883;48.882;2.092;2024-01-06T09:22:31;7.55;;;3.03;;
84652;SDS011;74883;48.882;2.092;2024-01-06T09:24:57;6.63;;;2.60;;
84652;SDS011;74883;48.882;2.092;2024-01-06T09:27:22;6.72;;;2.60;;
84652;SDS011;74883;48.882;2.092;2024-01-06T09:29:48;6.20;;;2.45;;
84652;SDS011;74883;48.882;2.092;2024-01-06T09:32:13;6.03;;;2.33;;
84652;SDS011;74883;48.882;2.092;2024-01-06T09:34:39;9.40;;;2.50;;
84652;SDS011;74883;48.882;2.092;2024-01-06T09:37:04;8.67;;;3.70;;
84652;SDS011;74883;48.882;2.092;2024-01-06T09:39:30;8.68;;;2.70;;
84652;SDS011;74883;48.882;2.092;2024-01-06T09:41:56;9.40;;;4.22;;
84652;SDS011;74883;48.882;2.092;2024-01-06T09:44:22;10.65;;;3.88;;
84652;SDS011;74883;48.882;2.092;2024-01-06T09:46:48;9.32;;;3.10;;
84652;SDS011;74883;48.882;2.092;2024-01-06T09:49:15;6.68;;;3.03;;
84652;SDS011;74883;48.882;2.092;2024-01-06T09:51:48;8.10;;;3.20;;
84652;SDS011;74883;48.882;2.092;2024-01-06T09:54:16;4.97;;;2.22;;
84652;SDS011;74883;48.882;2.092;2024-01-06T09:56:51;7.22;;;2.53;;
84652;SDS011;74883;48.882;2.092;2024-01-06T09:59:16;5.57;;;2.53;;
84652;SDS011;74883;48.882;2.092;2024-01-06T10:04:10;8.05;;;3.42;;
84652;SDS011;74883;48.882;2.092;2024-01-06T10:06:35;6.40;;;2.85;;
84652;SDS011;74883;48.882;2.092;2024-01-06T10:09:01;7.68;;;2.28;;
84652;SDS011;74883;48.882;2.092;2024-01-06T10:11:27;8.23;;;2.42;;
84652;SDS011;74883;48.882;2.092;2024-01-06T10:13:52;6.67;;;2.80;;
84652;SDS011;74883;48.882;2.092;2024-01-06T10:16:19;5.90;;;2.47;;
84652;SDS011;74883;48.882;2.092;2024-01-06T10:18:44;5.97;;;2.65;;
84652;SDS011;74883;48.882;2.092;2024-01-06T10:21:10;6.80;;;2.60;;
84652;SDS011;74883;48.882;2.092;2024-01-06T10:23:36;6.22;;;2.70;;
84652;SDS011;74883;48.882;2.092;2024-01-06T10:26:01;4.93;;;2.20;;
84652;SDS011;74883;48.882;2.092;2024-01-06T10:28:27;7.55;;;3.25;;
84652;SDS011;74883;48.882;2.092;2024-01-06T10:30:53;9.45;;;3.45;;
84652;SDS011;74883;48.882;2.092;2024-01-06T10:33:20;6.70;;;3.17;;
84652;SDS011;74883;48.882;2.092;2024-01-06T10:35:46;8.20;;;2.75;;
84652;SDS011;74883;48.882;2.092;2024-01-06T10:38:12;7.32;;;3.05;;
84652;SDS011;74883;48.882;2.092;2024-01-06T10:40:38;8.23;;;2.58;;
84652;SDS011;74883;48.882;2.092;2024-01-06T10:43:04;5.82;;;2.10;;
84652;SDS011;74883;48.882;2.092;2024-01-06T10:45:30;8.40;;;7.30;;
84652;SDS011;74883;48.882;2.092;2024-01-06T10:47:56;5.73;;;2.10;;
84652;SDS011;74883;48.882;2.092;2024-01-06T10:50:22;4.88;;;2.05;;
84652;SDS011;74883;48.882;2.092;2024-01-06T10:52:48;5.85;;;2.67;;
84652;SDS011;74883;48.882;2.092;2024-01-06T10:55:17;5.93;;;1.73;;
84652;SDS011;74883;48.882;2.092;2024-01-06T10:57:45;5.93;;;1.90;;
84652;SDS011;74883;48.882;2.092;2024-01-06T11:00:11;4.78;;;1.77;;
84652;SDS011;74883;48.882;2.092;2024-01-06T11:02:38;4.22;;;1.65;;
84652;SDS011;74883;48.882;2.092;2024-01-06T11:05:04;5.50;;;1.80;;
84652;SDS011;74883;48.882;2.092;2024-01-06T11:07:32;4.75;;;1.73;;
84652;SDS011;74883;48.882;2.092;2024-01-06T11:10:06;8.10;;;2.38;;
84652;SDS011;74883;48.882;2.092;2024-01-06T11:12:37;7.55;;;2.10;;
84652;SDS011;74883;48.882;2.092;2024-01-06T11:15:02;7.35;;;2.40;;
84652;SDS011;74883;48.882;2.092;2024-01-06T11:18:11;6.53;;;2.38;;
84652;SDS011;74883;48.882;2.092;2024-01-06T11:20:25;8.50;;;2.25;;
84652;SDS011;74883;48.882;2.092;2024-01-06T11:22:51;7.03;;;2.17;;
84652;SDS011;74883;48.882;2.092;2024-01-06T11:25:17;7.65;;;2.13;;
84652;SDS011;74883;48.882;2.092;2024-01-06T11:27:45;5.97;;;1.95;;
84652;SDS011;74883;48.882;2.092;2024-01-06T11:32:48;8.85;;;3.08;;
84652;SDS011;74883;48.882;2.092;2024-01-06T11:35:17;5.40;;;1.65;;
84652;SDS011;74883;48.882;2.092;2024-01-06T11:42:46;5.68;;;1.92;;
84652;SDS011;74883;48.882;2.092;2024-01-06T11:45:12;3.03;;;1.30;;
84652;SDS011;74883;48.882;2.092;2024-01-06T11:47:38;4.85;;;1.70;;
84652;SDS011;74883;48.882;2.092;2024-01-06T11:50:04;6.85;;;1.92;;
84652;SDS011;74883;48.882;2.092;2024-01-06T11:52:34;7.72;;;2.35;;
84652;SDS011;74883;48.882;2.092;2024-01-06T11:55:00;4.55;;;1.75;;
84652;SDS011;74883;48.882;2.092;2024-01-06T11:57:26;3.28;;;1.17;;
84652;SDS011;74883;48.882;2.092;2024-01-06T11:59:53;6.70;;;1.85;;
84652;SDS011;74883;48.882;2.092;2024-01-06T12:02:18;6.33;;;1.70;;
84652;SDS011;74883;48.882;2.092;2024-01-06T12:04:48;5.10;;;1.90;;
84652;SDS011;74883;48.882;2.092;2024-01-06T12:07:16;7.45;;;1.70;;
84652;SDS011;74883;48.882;2.092;2024-01-06T12:09:42;4.97;;;1.80;;
84652;SDS011;74883;48.882;2.092;2024-01-06T12:12:07;4.33;;;1.50;;
84652;SDS011;74883;48.882;2.092;2024-01-06T12:14:34;8.95;;;2.42;;
84652;SDS011;74883;48.882;2.092;2024-01-06T12:17:00;4.88;;;1.50;;
84652;SDS011;74883;48.882;2.092;2024-01-06T12:19:31;4.68;;;1.83;;
84652;SDS011;74883;48.882;2.092;2024-01-06T12:21:58;7.28;;;2.72;;
84652;SDS011;74883;48.882;2.092;2024-01-06T12:24:24;7.30;;;2.53;;
84652;SDS011;74883;48.882;2.092;2024-01-06T12:26:52;4.75;;;1.50;;
84652;SDS011;74883;48.882;2.092;2024-01-06T12:29:17;5.77;;;1.33;;
84652;SDS011;74883;48.882;2.092;2024-01-06T12:31:42;8.43;;;1.75;;
84652;SDS011;74883;48.882;2.092;2024-01-06T12:34:09;4.43;;;1.50;;
84652;SDS011;74883;48.882;2.092;2024-01-06T12:36:38;6.47;;;1.77;;
84652;SDS011;74883;48.882;2.092;2024-01-06T12:39:06;5.60;;;1.67;;
84652;SDS011;74883;48.882;2.092;2024-01-06T12:41:36;4.30;;;1.33;;
84652;SDS011;74883;48.882;2.092;2024-01-06T12:46:28;4.67;;;1.50;;
84652;SDS011;74883;48.882;2.092;2024-01-06T12:48:53;6.38;;;2.28;;
84652;SDS011;74883;48.882;2.092;2024-01-06T12:51:19;4.60;;;2.08;;
84652;SDS011;74883;48.882;2.092;2024-01-06T12:53:44;8.90;;;2.17;;
84652;SDS011;74883;48.882;2.092;2024-01-06T12:56:09;8.07;;;1.80;;
84652;SDS011;74883;48.882;2.092;2024-01-06T12:58:35;9.98;;;4.03;;
84652;SDS011;74883;48.882;2.092;2024-01-06T13:01:00;5.95;;;1.80;;
84652;SDS011;74883;48.882;2.092;2024-01-06T13:03:27;6.68;;;1.80;;
84652;SDS011;74883;48.882;2.092;2024-01-06T13:05:53;3.70;;;1.02;;
84652;SDS011;74883;48.882;2.092;2024-01-06T13:08:18;4.85;;;1.27;;
84652;SDS011;74883;48.882;2.092;2024-01-06T13:10:44;6.10;;;1.50;;
84652;SDS011;74883;48.882;2.092;2024-01-06T13:13:09;6.50;;;1.97;;
84652;SDS011;74883;48.882;2.092;2024-01-06T13:15:34;4.47;;;1.40;;
84652;SDS011;74883;48.882;2.092;2024-01-06T13:18:00;4.10;;;1.60;;
84652;SDS011;74883;48.882;2.092;2024-01-06T13:20:25;4.70;;;1.10;;
84652;SDS011;74883;48.882;2.092;2024-01-06T13:22:50;3.87;;;1.53;;
84652;SDS011;74883;48.882;2.092;2024-01-06T13:25:16;5.15;;;1.60;;
84652;SDS011;74883;48.882;2.092;2024-01-06T13:27:42;5.03;;;1.30;;
84652;SDS011;74883;48.882;2.092;2024-01-06T13:30:08;4.67;;;2.23;;
84652;SDS011;74883;48.882;2.092;2024-01-06T13:32:33;5.50;;;1.20;;
84652;SDS011;74883;48.882;2.092;2024-01-06T13:34:59;4.40;;;1.58;;
84652;SDS011;74883;48.882;2.092;2024-01-06T13:37:29;2.58;;;1.23;;
84652;SDS011;74883;48.882;2.092;2024-01-06T13:39:56;3.53;;;1.27;;
84652;SDS011;74883;48.882;2.092;2024-01-06T13:42:21;4.97;;;1.35;;
84652;SDS011;74883;48.882;2.092;2024-01-06T13:44:47;4.83;;;1.30;;
84652;SDS011;74883;48.882;2.092;2024-01-06T13:47:13;5.50;;;1.38;;
84652;SDS011;74883;48.882;2.092;2024-01-06T13:49:39;5.28;;;1.80;;
84652;SDS011;74883;48.882;2.092;2024-01-06T13:52:04;4.28;;;1.73;;
84652;SDS011;74883;48.882;2.092;2024-01-06T13:54:32;6.05;;;1.60;;
84652;SDS011;74883;48.882;2.092;2024-01-06T13:56:58;4.82;;;1.25;;
84652;SDS011;74883;48.882;2.092;2024-01-06T13:59:23;4.27;;;1.60;;
84652;SDS011;74883;48.882;2.092;2024-01-06T14:01:48;2.67;;;1.07;;
84652;SDS011;74883;48.882;2.092;2024-01-06T14:04:14;5.63;;;1.20;;
84652;SDS011;74883;48.882;2.092;2024-01-06T14:06:39;2.95;;;0.95;;
84652;SDS011;74883;48.882;2.092;2024-01-06T14:09:05;6.90;;;2.43;;
84652;SDS011;74883;48.882;2.092;2024-01-06T14:11:30;3.95;;;1.38;;
84652;SDS011;74883;48.882;2.092;2024-01-06T14:13:59;4.53;;;1.50;;
84652;SDS011;74883;48.882;2.092;2024-01-06T14:16:25;5.65;;;1.75;;
84652;SDS011;74883;48.882;2.092;2024-01-06T14:18:50;7.70;;;2.03;;
84652;SDS011;74883;48.882;2.092;2024-01-06T14:21:16;4.27;;;1.30;;
84652;SDS011;74883;48.882;2.092;2024-01-06T14:23:48;1.42;;;0.80;;
84652;SDS011;74883;48.882;2.092;2024-01-06T14:26:14;3.53;;;1.50;;
84652;SDS011;74883;48.882;2.092;2024-01-06T14:28:41;4.95;;;2.20;;
84652;SDS011;74883;48.882;2.092;2024-01-06T14:31:07;4.03;;;1.33;;
84652;SDS011;74883;48.882;2.092;2024-01-06T14:33:35;3.08;;;1.13;;
84652;SDS011;74883;48.882;2.092;2024-01-06T14:36:00;6.53;;;1.77;;
84652;SDS011;74883;48.882;2.092;2024-01-06T14:38:26;5.93;;;0.98;;
84652;SDS011;74883;48.882;2.092;2024-01-06T14:40:51;2.75;;;0.98;;
84652;SDS011;74883;48.882;2.092;2024-01-06T14:43:18;4.15;;;1.20;;
84652;SDS011;74883;48.882;2.092;2024-01-06T14:45:43;2.97;;;1.08;;
84652;SDS011;74883;48.882;2.092;2024-01-06T14:48:08;7.60;;;1.70;;